sensor_id;sensor_type;location;lat;lon;timestamp;pressure;altitude;pressure_sealevel;temperature;humidity
44734;BME280;30462;52.446;-1.930;2022-12-18T00:00:19;100635.0391;;;;
44734;BME280;30462;52.446;-1.930;2022-12-18T00:01:21;100634.3125;;;;
44734;BME280;30462;52.446;-1.930;2022-12-18T00:02:18;100637.8164;;;;
44734;BME280;30462;52.446;-1.930;2022-12-18T00:03:18;100635.6172;;;;
44734;BME280;30462;52.446;-1.930;2022-12-18T00:04:19;100633.2891;;;;
44734;BME280;30462;52.446;-1.930;2022-12-18T00:05:17;100632.1641;;;;
44734;BME280;30462;52.446;-1.930;2022-12-18T00:06:19;100633.4141;;;;
44734;BME280;30462;52.446;-1.930;2022-12-18T00:07:18;100634.1563;;;;
44734;BME280;30462;52.446;-1.930;2022-12-18T00:08:19;100636.4063;;;;
44734;BME280;30462;52.446;-1.930;2022-12-18T00:09:18;100636.2969;;;;
44734;BME280;30462;52.446;-1.930;2022-12-18T00:10:18;100637.0273;;;;
44734;BME280;30462;52.446;-1.930;2022-12-18T00:11:19;100639.8477;;;;
44734;BME280;30462;52.446;-1.930;2022-12-18T00:12:18;100641.0313;;;;
44734;BME280;30462;52.446;-1.930;2022-12-18T00:13:18;100643.2461;;;;
44734;BME280;30462;52.446;-1.930;2022-12-18T00:14:18;100639.6563;;;;
44734;BME280;30462;52.446;-1.930;2022-12-18T00:15:18;100638.3125;;;;
44734;BME280;30462;52.446;-1.930;2022-12-18T00:16:19;100638.5;;;;
44734;BME280;30462;52.446;-1.930;2022-12-18T00:17:18;100636.1172;;;;
44734;BME280;30462;52.446;-1.930;2022-12-18T00:18:18;100637.6016;;;;
44734;BME280;30462;52.446;-1.930;2022-12-18T00:19:18;100636.957;;;;
44734;BME280;30462;52.446;-1.930;2022-12-18T00:20:18;100636.8359;;;;
44734;BME280;30462;52.446;-1.930;2022-12-18T00:21:18;100638.3633;;;;
44734;BME280;30462;52.446;-1.930;2022-12-18T00:22:18;100639.1836;;;;
44734;BME280;30462;52.446;-1.930;2022-12-18T00:23:17;100641.2773;;;;
44734;BME280;30462;52.446;-1.930;2022-12-18T00:24:17;100642.0234;;;;
44734;BME280;30462;52.446;-1.930;2022-12-18T00:25:18;100642.293;;;;
44734;BME280;30462;52.446;-1.930;2022-12-18T00:26:19;100644.6602;;;;
44734;BME280;30462;52.446;-1.930;2022-12-18T00:27:18;100648.5586;;;;
44734;BME280;30462;52.446;-1.930;2022-12-18T00:28:18;100648.4531;;;;
44734;BME280;30462;52.446;-1.930;2022-12-18T00:29:18;100646.9453;;;;
44734;BME280;30462;52.446;-1.930;2022-12-18T00:30:18;100648.0898;;;;
44734;BME280;30462;52.446;-1.930;2022-12-18T00:31:19;100650.0117;;;;
44734;BME280;30462;52.446;-1.930;2022-12-18T00:32:18;100647.0938;;;;
44734;BME280;30462;52.446;-1.930;2022-12-18T00:33:18;100648.4766;;;;
44734;BME280;30462;52.446;-1.930;2022-12-18T00:34:18;100650.1328;;;;
44734;BME280;30462;52.446;-1.930;2022-12-18T00:35:18;100649.5273;;;;
44734;BME280;30462;52.446;-1.930;2022-12-18T00:36:18;100648.207;;;;
44734;BME280;30462;52.446;-1.930;2022-12-18T00:37:18;100648.7695;;;;
44734;BME280;30462;52.446;-1.930;2022-12-18T00:38:18;100646.2422;;;;
44734;BME280;30462;52.446;-1.930;2022-12-18T00:39:17;100650.0469;;;;
44734;BME280;30462;52.446;-1.930;2022-12-18T00:40:18;100650.0977;;;;
44734;BME280;30462;52.446;-1.930;2022-12-18T00:41:18;100646.8555;;;;
44734;BME280;30462;52.446;-1.930;2022-12-18T00:42:18;100644.5;;;;
44734;BME280;30462;52.446;-1.930;2022-12-18T00:43:18;100645.8438;;;;
44734;BME280;30462;52.446;-1.930;2022-12-18T00:44:18;100644.9609;;;;
44734;BME280;30462;52.446;-1.930;2022-12-18T00:45:18;100647.5352;;;;
44734;BME280;30462;52.446;-1.930;2022-12-18T00:46:18;100646.8672;;;;
44734;BME280;30462;52.446;-1.930;2022-12-18T00:47:18;100652.2109;;;;
44734;BME280;30462;52.446;-1.930;2022-12-18T00:48:18;100654.8555;;;;
44734;BME280;30462;52.446;-1.930;2022-12-18T00:49:18;100653.0859;;;;
44734;BME280;30462;52.446;-1.930;2022-12-18T00:50:18;100654.2383;;;;
44734;BME280;30462;52.446;-1.930;2022-12-18T00:51:18;100649.9531;;;;
44734;BME280;30462;52.446;-1.930;2022-12-18T00:52:18;100649.3789;;;;
44734;BME280;30462;52.446;-1.930;2022-12-18T00:53:18;100644.293;;;;
44734;BME280;30462;52.446;-1.930;2022-12-18T00:54:18;100643.7031;;;;
44734;BME280;30462;52.446;-1.930;2022-12-18T00:55:18;100641.5273;;;;
44734;BME280;30462;52.446;-1.930;2022-12-18T00:57:18;100634.1914;;;;
44734;BME280;30462;52.446;-1.930;2022-12-18T00:58:18;100633.4102;;;;
44734;BME280;30462;52.446;-1.930;2022-12-18T00:59:18;100631.2695;;;;
44734;BME280;30462;52.446;-1.930;2022-12-18T01:00:18;100633.5898;;;;
44734;BME280;30462;52.446;-1.930;2022-12-18T01:01:18;100632.1367;;;;
44734;BME280;30462;52.446;-1.930;2022-12-18T01:02:18;100629.7227;;;;
44734;BME280;30462;52.446;-1.930;2022-12-18T01:03:18;100631.3359;;;;
44734;BME280;30462;52.446;-1.930;2022-12-18T01:04:18;100629.1797;;;;
44734;BME280;30462;52.446;-1.930;2022-12-18T01:05:18;100629.6328;;;;
44734;BME280;30462;52.446;-1.930;2022-12-18T01:06:18;100629.0313;;;;
44734;BME280;30462;52.446;-1.930;2022-12-18T01:07:18;100628.1641;;;;
44734;BME280;30462;52.446;-1.930;2022-12-18T01:08:18;100628.2148;;;;
44734;BME280;30462;52.446;-1.930;2022-12-18T01:09:18;100626.5039;;;;
44734;BME280;30462;52.446;-1.930;2022-12-18T01:10:18;100624.2578;;;;
44734;BME280;30462;52.446;-1.930;2022-12-18T01:11:19;100616.4492;;;;
44734;BME280;30462;52.446;-1.930;2022-12-18T01:12:17;100612.3438;;;;
44734;BME280;30462;52.446;-1.930;2022-12-18T01:13:18;100609.1758;;;;
44734;BME280;30462;52.446;-1.930;2022-12-18T01:14:18;100606.082;;;;
44734;BME280;30462;52.446;-1.930;2022-12-18T01:15:18;100602.0508;;;;
44734;BME280;30462;52.446;-1.930;2022-12-18T01:16:19;100600.1563;;;;
44734;BME280;30462;52.446;-1.930;2022-12-18T01:17:18;100596.2695;;;;
44734;BME280;30462;52.446;-1.930;2022-12-18T01:18:18;100596.4688;;;;
44734;BME280;30462;52.446;-1.930;2022-12-18T01:19:17;100597.7578;;;;
44734;BME280;30462;52.446;-1.930;2022-12-18T01:20:18;100600.9844;;;;
44734;BME280;30462;52.446;-1.930;2022-12-18T01:21:18;100601.6406;;;;
44734;BME280;30462;52.446;-1.930;2022-12-18T01:22:18;100605.9453;;;;
44734;BME280;30462;52.446;-1.930;2022-12-18T01:23:18;100607.1211;;;;
44734;BME280;30462;52.446;-1.930;2022-12-18T01:24:18;100608.7031;;;;
44734;BME280;30462;52.446;-1.930;2022-12-18T01:25:18;100605.8945;;;;
44734;BME280;30462;52.446;-1.930;2022-12-18T01:26:18;100600.9805;;;;
44734;BME280;30462;52.446;-1.930;2022-12-18T01:27:18;100601.4375;;;;
44734;BME280;30462;52.446;-1.930;2022-12-18T01:28:18;100597.5352;;;;
44734;BME280;30462;52.446;-1.930;2022-12-18T01:29:17;100596.3008;;;;
44734;BME280;30462;52.446;-1.930;2022-12-18T01:30:17;100602.1094;;;;
44734;BME280;30462;52.446;-1.930;2022-12-18T01:31:19;100600.0352;;;;
44734;BME280;30462;52.446;-1.930;2022-12-18T01:32:18;100595.8398;;;;
44734;BME280;30462;52.446;-1.930;2022-12-18T01:33:18;100598.7148;;;;
44734;BME280;30462;52.446;-1.930;2022-12-18T01:34:18;100602.7891;;;;
44734;BME280;30462;52.446;-1.930;2022-12-18T01:35:18;100600.7227;;;;
44734;BME280;30462;52.446;-1.930;2022-12-18T01:36:18;100604.7461;;;;
44734;BME280;30462;52.446;-1.930;2022-12-18T01:37:18;100609.4219;;;;
44734;BME280;30462;52.446;-1.930;2022-12-18T01:38:18;100612.75;;;;
44734;BME280;30462;52.446;-1.930;2022-12-18T01:39:18;100613.9219;;;;
44734;BME280;30462;52.446;-1.930;2022-12-18T01:40:18;100608.6953;;;;
44734;BME280;30462;52.446;-1.930;2022-12-18T01:41:19;100609.7422;;;;
44734;BME280;30462;52.446;-1.930;2022-12-18T01:42:18;100610.9688;;;;
44734;BME280;30462;52.446;-1.930;2022-12-18T01:43:18;100605.9492;;;;
44734;BME280;30462;52.446;-1.930;2022-12-18T01:45:23;100594.4922;;;;
44734;BME280;30462;52.446;-1.930;2022-12-18T01:46:18;100597.7109;;;;
44734;BME280;30462;52.446;-1.930;2022-12-18T01:47:20;100599.8828;;;;
44734;BME280;30462;52.446;-1.930;2022-12-18T01:48:18;100599.5039;;;;
44734;BME280;30462;52.446;-1.930;2022-12-18T01:49:18;100601.0234;;;;
44734;BME280;30462;52.446;-1.930;2022-12-18T01:50:19;100603.0078;;;;
44734;BME280;30462;52.446;-1.930;2022-12-18T01:51:18;100606.8086;;;;
44734;BME280;30462;52.446;-1.930;2022-12-18T01:52:18;100605.7344;;;;
44734;BME280;30462;52.446;-1.930;2022-12-18T01:53:18;100608.8867;;;;
44734;BME280;30462;52.446;-1.930;2022-12-18T01:54:18;100610.1875;;;;
44734;BME280;30462;52.446;-1.930;2022-12-18T01:55:20;100614.4961;;;;
44734;BME280;30462;52.446;-1.930;2022-12-18T01:56:18;100614.0352;;;;
44734;BME280;30462;52.446;-1.930;2022-12-18T01:57:19;100610.707;;;;
44734;BME280;30462;52.446;-1.930;2022-12-18T01:58:18;100616.8789;;;;
44734;BME280;30462;52.446;-1.930;2022-12-18T01:59:17;100617.0938;;;;
44734;BME280;30462;52.446;-1.930;2022-12-18T02:00:19;100616.332;;;;
44734;BME280;30462;52.446;-1.930;2022-12-18T02:01:18;100620.1523;;;;
44734;BME280;30462;52.446;-1.930;2022-12-18T02:02:19;100620.9688;;;;
44734;BME280;30462;52.446;-1.930;2022-12-18T02:03:18;100623.5625;;;;
44734;BME280;30462;52.446;-1.930;2022-12-18T02:04:23;100625.832;;;;
44734;BME280;30462;52.446;-1.930;2022-12-18T02:05:18;100630.8281;;;;
44734;BME280;30462;52.446;-1.930;2022-12-18T02:06:20;100630.6563;;;;
44734;BME280;30462;52.446;-1.930;2022-12-18T02:07:20;100631.4414;;;;
44734;BME280;30462;52.446;-1.930;2022-12-18T02:08:19;100635.0117;;;;
44734;BME280;30462;52.446;-1.930;2022-12-18T02:09:19;100637.0195;;;;
44734;BME280;30462;52.446;-1.930;2022-12-18T02:10:21;100637.2383;;;;
44734;BME280;30462;52.446;-1.930;2022-12-18T02:11:19;100633.1719;;;;
44734;BME280;30462;52.446;-1.930;2022-12-18T02:12:21;100637.043;;;;
44734;BME280;30462;52.446;-1.930;2022-12-18T02:13:20;100632.5352;;;;
44734;BME280;30462;52.446;-1.930;2022-12-18T02:14:22;100629.2031;;;;
44734;BME280;30462;52.446;-1.930;2022-12-18T02:15:19;100634.9961;;;;
44734;BME280;30462;52.446;-1.930;2022-12-18T02:16:21;100634.0234;;;;
44734;BME280;30462;52.446;-1.930;2022-12-18T02:17:19;100641.7578;;;;
44734;BME280;30462;52.446;-1.930;2022-12-18T02:18:19;100643.9844;;;;
44734;BME280;30462;52.446;-1.930;2022-12-18T02:20:20;100647.2227;;;;
44734;BME280;30462;52.446;-1.930;2022-12-18T02:21:22;100643.6016;;;;
44734;BME280;30462;52.446;-1.930;2022-12-18T02:23:22;100643.8906;;;;
44734;BME280;30462;52.446;-1.930;2022-12-18T02:24:24;100642.5;;;;
44734;BME280;30462;52.446;-1.930;2022-12-18T02:26:18;100649.5469;;;;
44734;BME280;30462;52.446;-1.930;2022-12-18T02:27:18;100652.9648;;;;
44734;BME280;30462;52.446;-1.930;2022-12-18T02:28:19;100654.3516;;;;
44734;BME280;30462;52.446;-1.930;2022-12-18T02:29:20;100659.1875;;;;
44734;BME280;30462;52.446;-1.930;2022-12-18T02:30:18;100660.0117;;;;
44734;BME280;30462;52.446;-1.930;2022-12-18T02:32:19;100663.8867;;;;
44734;BME280;30462;52.446;-1.930;2022-12-18T02:33:18;100662.4648;;;;
44734;BME280;30462;52.446;-1.930;2022-12-18T02:34:18;100662.4805;;;;
44734;BME280;30462;52.446;-1.930;2022-12-18T02:35:20;100652.9102;;;;
44734;BME280;30462;52.446;-1.930;2022-12-18T02:36:18;100656.3008;;;;
44734;BME280;30462;52.446;-1.930;2022-12-18T02:37:18;100653.043;;;;
44734;BME280;30462;52.446;-1.930;2022-12-18T02:38:18;100650.7891;;;;
44734;BME280;30462;52.446;-1.930;2022-12-18T02:39:18;100648.4766;;;;
44734;BME280;30462;52.446;-1.930;2022-12-18T02:40:18;100649.6016;;;;
44734;BME280;30462;52.446;-1.930;2022-12-18T02:41:18;100648.4805;;;;
44734;BME280;30462;52.446;-1.930;2022-12-18T02:42:18;100648.0313;;;;
44734;BME280;30462;52.446;-1.930;2022-12-18T02:43:18;100646.7344;;;;
44734;BME280;30462;52.446;-1.930;2022-12-18T02:44:17;100639.6367;;;;
44734;BME280;30462;52.446;-1.930;2022-12-18T02:45:18;100643.875;;;;
44734;BME280;30462;52.446;-1.930;2022-12-18T02:47:19;100642.9297;;;;
44734;BME280;30462;52.446;-1.930;2022-12-18T02:48:18;100640.2188;;;;
44734;BME280;30462;52.446;-1.930;2022-12-18T02:49:22;100639.7266;;;;
44734;BME280;30462;52.446;-1.930;2022-12-18T02:50:22;100639.9727;;;;
44734;BME280;30462;52.446;-1.930;2022-12-18T02:51:21;100634.0117;;;;
44734;BME280;30462;52.446;-1.930;2022-12-18T02:52:21;100635.6055;;;;
44734;BME280;30462;52.446;-1.930;2022-12-18T02:53:22;100629.3086;;;;
44734;BME280;30462;52.446;-1.930;2022-12-18T02:54:21;100630.5547;;;;
44734;BME280;30462;52.446;-1.930;2022-12-18T02:55:20;100631.1172;;;;
44734;BME280;30462;52.446;-1.930;2022-12-18T02:56:19;100630.293;;;;
44734;BME280;30462;52.446;-1.930;2022-12-18T02:57:22;100632.8594;;;;
44734;BME280;30462;52.446;-1.930;2022-12-18T02:58:18;100632.2656;;;;
44734;BME280;30462;52.446;-1.930;2022-12-18T02:59:19;100631.7031;;;;
44734;BME280;30462;52.446;-1.930;2022-12-18T03:00:19;100633.543;;;;
44734;BME280;30462;52.446;-1.930;2022-12-18T03:01:21;100630.5898;;;;
44734;BME280;30462;52.446;-1.930;2022-12-18T03:02:19;100627.8203;;;;
44734;BME280;30462;52.446;-1.930;2022-12-18T03:03:22;100623.8164;;;;
44734;BME280;30462;52.446;-1.930;2022-12-18T03:04:19;100622.293;;;;
44734;BME280;30462;52.446;-1.930;2022-12-18T03:05:19;100615.6914;;;;
44734;BME280;30462;52.446;-1.930;2022-12-18T03:06:20;100610.0742;;;;
44734;BME280;30462;52.446;-1.930;2022-12-18T03:07:19;100608.8828;;;;
44734;BME280;30462;52.446;-1.930;2022-12-18T03:08:18;100607.8359;;;;
44734;BME280;30462;52.446;-1.930;2022-12-18T03:09:19;100608.1094;;;;
44734;BME280;30462;52.446;-1.930;2022-12-18T03:10:19;100602.3984;;;;
44734;BME280;30462;52.446;-1.930;2022-12-18T03:11:18;100601.5781;;;;
44734;BME280;30462;52.446;-1.930;2022-12-18T03:12:23;100604.1406;;;;
44734;BME280;30462;52.446;-1.930;2022-12-18T03:13:19;100600.293;;;;
44734;BME280;30462;52.446;-1.930;2022-12-18T03:14:18;100601.2969;;;;
44734;BME280;30462;52.446;-1.930;2022-12-18T03:15:24;100597.9805;;;;
44734;BME280;30462;52.446;-1.930;2022-12-18T03:16:19;100597.1992;;;;
44734;BME280;30462;52.446;-1.930;2022-12-18T03:17:19;100595.8594;;;;
44734;BME280;30462;52.446;-1.930;2022-12-18T03:18:19;100595.207;;;;
44734;BME280;30462;52.446;-1.930;2022-12-18T03:19:19;100592.2813;;;;
44734;BME280;30462;52.446;-1.930;2022-12-18T03:20:19;100589.4375;;;;
44734;BME280;30462;52.446;-1.930;2022-12-18T03:21:18;100590.4922;;;;
44734;BME280;30462;52.446;-1.930;2022-12-18T03:22:18;100588.1172;;;;
44734;BME280;30462;52.446;-1.930;2022-12-18T03:23:20;100587.7109;;;;
44734;BME280;30462;52.446;-1.930;2022-12-18T03:24:18;100587.0195;;;;
44734;BME280;30462;52.446;-1.930;2022-12-18T03:25:17;100585.3438;;;;
44734;BME280;30462;52.446;-1.930;2022-12-18T03:26:19;100583.2578;;;;
44734;BME280;30462;52.446;-1.930;2022-12-18T03:27:18;100581.9531;;;;
44734;BME280;30462;52.446;-1.930;2022-12-18T03:28:19;100582.8867;;;;
44734;BME280;30462;52.446;-1.930;2022-12-18T03:29:19;100588.3633;;;;
44734;BME280;30462;52.446;-1.930;2022-12-18T03:30:18;100587.6523;;;;
44734;BME280;30462;52.446;-1.930;2022-12-18T03:31:18;100592.5938;;;;
44734;BME280;30462;52.446;-1.930;2022-12-18T03:32:23;100590.5547;;;;
44734;BME280;30462;52.446;-1.930;2022-12-18T03:33:19;100594.1484;;;;
44734;BME280;30462;52.446;-1.930;2022-12-18T03:34:20;100594.0977;;;;
44734;BME280;30462;52.446;-1.930;2022-12-18T03:35:21;100594.4063;;;;
44734;BME280;30462;52.446;-1.930;2022-12-18T03:36:18;100591.6602;;;;
44734;BME280;30462;52.446;-1.930;2022-12-18T03:37:18;100590.7578;;;;
44734;BME280;30462;52.446;-1.930;2022-12-18T03:38:18;100586.7227;;;;
44734;BME280;30462;52.446;-1.930;2022-12-18T03:39:19;100585.2813;;;;
44734;BME280;30462;52.446;-1.930;2022-12-18T03:40:18;100582.2617;;;;
44734;BME280;30462;52.446;-1.930;2022-12-18T03:41:24;100576;;;;
44734;BME280;30462;52.446;-1.930;2022-12-18T03:42:20;100571.5508;;;;
44734;BME280;30462;52.446;-1.930;2022-12-18T03:43:19;100566.1563;;;;
44734;BME280;30462;52.446;-1.930;2022-12-18T03:44:20;100565.0742;;;;
44734;BME280;30462;52.446;-1.930;2022-12-18T03:45:19;100560.8945;;;;
44734;BME280;30462;52.446;-1.930;2022-12-18T03:46:21;100564.25;;;;
44734;BME280;30462;52.446;-1.930;2022-12-18T03:47:19;100563.7266;;;;
44734;BME280;30462;52.446;-1.930;2022-12-18T03:48:20;100558.1758;;;;
44734;BME280;30462;52.446;-1.930;2022-12-18T03:49:19;100554.3281;;;;
44734;BME280;30462;52.446;-1.930;2022-12-18T03:50:19;100553.1797;;;;
44734;BME280;30462;52.446;-1.930;2022-12-18T03:51:19;100552.5156;;;;
44734;BME280;30462;52.446;-1.930;2022-12-18T03:52:18;100550.2383;;;;
44734;BME280;30462;52.446;-1.930;2022-12-18T03:53:24;100548.4492;;;;
44734;BME280;30462;52.446;-1.930;2022-12-18T03:54:18;100547.1836;;;;
44734;BME280;30462;52.446;-1.930;2022-12-18T03:55:18;100546.4023;;;;
44734;BME280;30462;52.446;-1.930;2022-12-18T03:56:18;100540.6367;;;;
44734;BME280;30462;52.446;-1.930;2022-12-18T03:57:19;100535.8164;;;;
44734;BME280;30462;52.446;-1.930;2022-12-18T03:58:19;100534.543;;;;
44734;BME280;30462;52.446;-1.930;2022-12-18T03:59:18;100530.5625;;;;
44734;BME280;30462;52.446;-1.930;2022-12-18T04:00:18;100535.9297;;;;
44734;BME280;30462;52.446;-1.930;2022-12-18T04:01:19;100528.5117;;;;
44734;BME280;30462;52.446;-1.930;2022-12-18T04:02:18;100526.6523;;;;
44734;BME280;30462;52.446;-1.930;2022-12-18T04:03:18;100526.8398;;;;
44734;BME280;30462;52.446;-1.930;2022-12-18T04:04:18;100525.1641;;;;
44734;BME280;30462;52.446;-1.930;2022-12-18T04:05:20;100527.2813;;;;
44734;BME280;30462;52.446;-1.930;2022-12-18T04:06:18;100523.9336;;;;
44734;BME280;30462;52.446;-1.930;2022-12-18T04:07:18;100527.5195;;;;
44734;BME280;30462;52.446;-1.930;2022-12-18T04:08:18;100527.4023;;;;
44734;BME280;30462;52.446;-1.930;2022-12-18T04:09:18;100526.7578;;;;
44734;BME280;30462;52.446;-1.930;2022-12-18T04:10:18;100524.1055;;;;
44734;BME280;30462;52.446;-1.930;2022-12-18T04:11:18;100518.2773;;;;
44734;BME280;30462;52.446;-1.930;2022-12-18T04:12:18;100512.9648;;;;
44734;BME280;30462;52.446;-1.930;2022-12-18T04:14:18;100509.6484;;;;
44734;BME280;30462;52.446;-1.930;2022-12-18T04:15:18;100504.7773;;;;
44734;BME280;30462;52.446;-1.930;2022-12-18T04:16:18;100506;;;;
44734;BME280;30462;52.446;-1.930;2022-12-18T04:17:17;100499.1211;;;;
44734;BME280;30462;52.446;-1.930;2022-12-18T04:18:19;100504.6641;;;;
44734;BME280;30462;52.446;-1.930;2022-12-18T04:19:18;100499.1914;;;;
44734;BME280;30462;52.446;-1.930;2022-12-18T04:20:17;100496.5117;;;;
44734;BME280;30462;52.446;-1.930;2022-12-18T04:21:17;100490.8828;;;;
44734;BME280;30462;52.446;-1.930;2022-12-18T04:22:17;100489.332;;;;
44734;BME280;30462;52.446;-1.930;2022-12-18T04:23:18;100483.8242;;;;
44734;BME280;30462;52.446;-1.930;2022-12-18T04:24:18;100481.4844;;;;
44734;BME280;30462;52.446;-1.930;2022-12-18T04:25:18;100479.4531;;;;
44734;BME280;30462;52.446;-1.930;2022-12-18T04:26:18;100474.6602;;;;
44734;BME280;30462;52.446;-1.930;2022-12-18T04:27:17;100474.0195;;;;
44734;BME280;30462;52.446;-1.930;2022-12-18T04:28:17;100470.6719;;;;
44734;BME280;30462;52.446;-1.930;2022-12-18T04:29:17;100468.0156;;;;
44734;BME280;30462;52.446;-1.930;2022-12-18T04:30:18;100468.2539;;;;
44734;BME280;30462;52.446;-1.930;2022-12-18T04:31:18;100467.1211;;;;
44734;BME280;30462;52.446;-1.930;2022-12-18T04:32:18;100465.1172;;;;
44734;BME280;30462;52.446;-1.930;2022-12-18T04:33:18;100464.457;;;;
44734;BME280;30462;52.446;-1.930;2022-12-18T04:34:18;100465.7305;;;;
44734;BME280;30462;52.446;-1.930;2022-12-18T04:35:18;100463.2031;;;;
44734;BME280;30462;52.446;-1.930;2022-12-18T04:36:18;100465.0195;;;;
44734;BME280;30462;52.446;-1.930;2022-12-18T04:37:17;100462.4844;;;;
44734;BME280;30462;52.446;-1.930;2022-12-18T04:38:18;100461.1211;;;;
44734;BME280;30462;52.446;-1.930;2022-12-18T04:39:18;100461.5859;;;;
44734;BME280;30462;52.446;-1.930;2022-12-18T04:40:18;100457.8906;;;;
44734;BME280;30462;52.446;-1.930;2022-12-18T04:41:18;100454.5859;;;;
44734;BME280;30462;52.446;-1.930;2022-12-18T04:42:18;100451.3711;;;;
44734;BME280;30462;52.446;-1.930;2022-12-18T04:43:17;100449.9414;;;;
44734;BME280;30462;52.446;-1.930;2022-12-18T04:44:18;100442.6836;;;;
44734;BME280;30462;52.446;-1.930;2022-12-18T04:45:18;100438.6719;;;;
44734;BME280;30462;52.446;-1.930;2022-12-18T04:46:18;100434.207;;;;
44734;BME280;30462;52.446;-1.930;2022-12-18T04:47:18;100434.3672;;;;
44734;BME280;30462;52.446;-1.930;2022-12-18T04:48:17;100427.1602;;;;
44734;BME280;30462;52.446;-1.930;2022-12-18T04:49:17;100427.5156;;;;
44734;BME280;30462;52.446;-1.930;2022-12-18T04:50:17;100426.1367;;;;
44734;BME280;30462;52.446;-1.930;2022-12-18T04:51:18;100419.3789;;;;
44734;BME280;30462;52.446;-1.930;2022-12-18T04:52:18;100418.625;;;;
44734;BME280;30462;52.446;-1.930;2022-12-18T04:53:18;100415.5742;;;;
44734;BME280;30462;52.446;-1.930;2022-12-18T04:54:19;100413.125;;;;
44734;BME280;30462;52.446;-1.930;2022-12-18T04:55:18;100408.8125;;;;
44734;BME280;30462;52.446;-1.930;2022-12-18T04:56:18;100406.543;;;;
44734;BME280;30462;52.446;-1.930;2022-12-18T04:57:18;100401.8086;;;;
44734;BME280;30462;52.446;-1.930;2022-12-18T04:58:18;100396.0078;;;;
44734;BME280;30462;52.446;-1.930;2022-12-18T04:59:18;100390.2617;;;;
44734;BME280;30462;52.446;-1.930;2022-12-18T05:00:18;100386.8281;;;;
44734;BME280;30462;52.446;-1.930;2022-12-18T05:01:18;100385.3477;;;;
44734;BME280;30462;52.446;-1.930;2022-12-18T05:02:18;100387.9883;;;;
44734;BME280;30462;52.446;-1.930;2022-12-18T05:03:18;100385.9375;;;;
44734;BME280;30462;52.446;-1.930;2022-12-18T05:04:18;100383.3008;;;;
44734;BME280;30462;52.446;-1.930;2022-12-18T05:05:18;100384.0352;;;;
44734;BME280;30462;52.446;-1.930;2022-12-18T05:06:17;100383.1484;;;;
44734;BME280;30462;52.446;-1.930;2022-12-18T05:07:18;100383.5117;;;;
44734;BME280;30462;52.446;-1.930;2022-12-18T05:08:18;100384.7617;;;;
44734;BME280;30462;52.446;-1.930;2022-12-18T05:09:18;100376.9141;;;;
44734;BME280;30462;52.446;-1.930;2022-12-18T05:10:18;100378.5156;;;;
44734;BME280;30462;52.446;-1.930;2022-12-18T05:11:18;100375.5039;;;;
44734;BME280;30462;52.446;-1.930;2022-12-18T05:12:18;100375.8203;;;;
44734;BME280;30462;52.446;-1.930;2022-12-18T05:13:18;100379.2773;;;;
44734;BME280;30462;52.446;-1.930;2022-12-18T05:14:18;100379.168;;;;
44734;BME280;30462;52.446;-1.930;2022-12-18T05:15:18;100382.3828;;;;
44734;BME280;30462;52.446;-1.930;2022-12-18T05:16:18;100385.2539;;;;
44734;BME280;30462;52.446;-1.930;2022-12-18T05:17:18;100384.7734;;;;
44734;BME280;30462;52.446;-1.930;2022-12-18T05:18:18;100390.2422;;;;
44734;BME280;30462;52.446;-1.930;2022-12-18T05:19:17;100391.2539;;;;
44734;BME280;30462;52.446;-1.930;2022-12-18T05:20:18;100400.3164;;;;
44734;BME280;30462;52.446;-1.930;2022-12-18T05:21:18;100403.832;;;;
44734;BME280;30462;52.446;-1.930;2022-12-18T05:22:18;100410.0352;;;;
44734;BME280;30462;52.446;-1.930;2022-12-18T05:23:18;100412.9805;;;;
44734;BME280;30462;52.446;-1.930;2022-12-18T05:24:18;100411.0469;;;;
44734;BME280;30462;52.446;-1.930;2022-12-18T05:25:18;100408.3594;;;;
44734;BME280;30462;52.446;-1.930;2022-12-18T05:26:18;100415;;;;
44734;BME280;30462;52.446;-1.930;2022-12-18T05:27:18;100414.4336;;;;
44734;BME280;30462;52.446;-1.930;2022-12-18T05:28:19;100411.625;;;;
44734;BME280;30462;52.446;-1.930;2022-12-18T05:29:18;100414.8477;;;;
44734;BME280;30462;52.446;-1.930;2022-12-18T05:30:18;100413.4766;;;;
44734;BME280;30462;52.446;-1.930;2022-12-18T05:31:18;100412.1992;;;;
44734;BME280;30462;52.446;-1.930;2022-12-18T05:32:18;100405.3281;;;;
44734;BME280;30462;52.446;-1.930;2022-12-18T05:33:18;100405.8477;;;;
44734;BME280;30462;52.446;-1.930;2022-12-18T05:34:18;100407.2539;;;;
44734;BME280;30462;52.446;-1.930;2022-12-18T05:35:17;100407.418;;;;
44734;BME280;30462;52.446;-1.930;2022-12-18T05:36:17;100408.707;;;;
44734;BME280;30462;52.446;-1.930;2022-12-18T05:37:18;100408.0234;;;;
44734;BME280;30462;52.446;-1.930;2022-12-18T05:38:18;100403.1914;;;;
44734;BME280;30462;52.446;-1.930;2022-12-18T05:39:18;100399.6484;;;;
44734;BME280;30462;52.446;-1.930;2022-12-18T05:40:18;100403.1484;;;;
44734;BME280;30462;52.446;-1.930;2022-12-18T05:41:18;100401.1406;;;;
44734;BME280;30462;52.446;-1.930;2022-12-18T05:42:18;100398.6484;;;;
44734;BME280;30462;52.446;-1.930;2022-12-18T05:43:19;100393.9375;;;;
44734;BME280;30462;52.446;-1.930;2022-12-18T05:44:17;100393.3008;;;;
44734;BME280;30462;52.446;-1.930;2022-12-18T05:45:18;100390.7578;;;;
44734;BME280;30462;52.446;-1.930;2022-12-18T05:46:18;100386.7695;;;;
44734;BME280;30462;52.446;-1.930;2022-12-18T05:47:18;100384.1523;;;;
44734;BME280;30462;52.446;-1.930;2022-12-18T05:48:18;100375.8594;;;;
44734;BME280;30462;52.446;-1.930;2022-12-18T05:49:18;100372.4336;;;;
44734;BME280;30462;52.446;-1.930;2022-12-18T05:50:18;100370.4648;;;;
44734;BME280;30462;52.446;-1.930;2022-12-18T05:51:19;100362.6875;;;;
44734;BME280;30462;52.446;-1.930;2022-12-18T05:52:18;100362.3281;;;;
44734;BME280;30462;52.446;-1.930;2022-12-18T05:53:18;100363.2578;;;;
44734;BME280;30462;52.446;-1.930;2022-12-18T05:54:18;100361.7617;;;;